Time;durP1;ratioP1;P1;durP2;ratioP2;P2;SDS_P1;SDS_P2;PMS_P1;PMS_P2;Temp;Humidity;BMP_temperature;BMP_pressure;BME280_temperature;BME280_humidity;BME280_pressure;Samples;Min_cycle;Max_cycle;Signal;HPM_P1;HPM_P2
2021/06/06 00:01:14;;;;;;;4.40;2.83;;;;;;;14.91;80.36;97901.57;1649873;87;21054;-66
2021/06/06 00:03:49;;;;;;;5.72;2.52;;;;;;;14.88;80.94;97909.27;1708790;84;21023;-66
2021/06/06 00:06:23;;;;;;;3.80;2.25;;;;;;;14.88;78.72;97913.69;1708597;83;21134;-65
2021/06/06 00:08:51;;;;;;;4.80;2.12;;;;;;;14.89;78.32;97917.94;1708712;84;21057;-65
2021/06/06 00:11:29;;;;;;;4.00;2.27;;;;;;;14.89;77.14;97921.38;1709434;83;21008;-66
2021/06/06 00:14:00;;;;;;;3.62;2.50;;;;;;;14.91;77.48;97932.95;1708672;83;21095;-66
2021/06/06 00:16:45;;;;;;;2.95;1.77;;;;;;;14.89;77.05;97937.55;1649700;86;21103;-66
2021/06/06 00:19:14;;;;;;;3.83;2.17;;;;;;;14.88;78.04;97938.03;1708822;84;21047;-66
2021/06/06 00:21:42;;;;;;;3.47;2.12;;;;;;;14.87;78.04;97946.86;1649915;87;21537;-66
2021/06/06 00:24:13;;;;;;;2.77;2.10;;;;;;;14.90;76.54;97963.50;1649690;87;21569;-65
2021/06/06 00:26:41;;;;;;;3.10;2.12;;;;;;;14.96;74.60;97986.86;1708726;83;21047;-65
2021/06/06 00:29:08;;;;;;;4.87;2.15;;;;;;;15.00;73.95;97999.92;1708965;84;21015;-73
2021/06/06 00:31:36;;;;;;;3.47;2.05;;;;;;;15.03;74.11;98006.12;1709324;83;21042;-66
2021/06/06 00:34:04;;;;;;;3.20;2.15;;;;;;;15.07;76.52;97995.64;1709141;84;21530;-66
2021/06/06 00:36:31;;;;;;;4.62;2.40;;;;;;;14.79;82.03;97978.74;1649973;87;21066;-65
2021/06/06 00:38:58;;;;;;;3.08;2.20;;;;;;;14.80;80.56;97964.21;1709010;84;21061;-67
2021/06/06 00:41:28;;;;;;;4.08;2.02;;;;;;;14.75;79.95;97945.59;1649841;87;21011;-65
2021/06/06 00:43:57;;;;;;;5.08;2.52;;;;;;;14.65;81.55;97931.44;1650197;86;21439;-65
2021/06/06 00:46:27;;;;;;;3.10;2.20;;;;;;;14.49;83.25;97924.95;1708825;83;21003;-65
2021/06/06 00:48:55;;;;;;;4.15;2.25;;;;;;;14.48;82.21;97906.33;1709141;83;20999;-66
2021/06/06 00:51:40;;;;;;;3.30;1.90;;;;;;;14.44;82.33;97889.36;1709295;84;21077;-70
2021/06/06 00:54:16;;;;;;;4.33;2.17;;;;;;;14.40;83.23;97878.09;1709418;84;21086;-66
2021/06/06 00:56:48;;;;;;;4.35;2.20;;;;;;;14.34;84.73;97876.14;1650041;87;21142;-65
2021/06/06 00:59:19;;;;;;;3.17;1.80;;;;;;;14.34;84.12;97876.95;1649888;87;21050;-72
2021/06/06 01:01:47;;;;;;;3.22;1.72;;;;;;;14.38;82.86;97869.14;1708739;83;21065;-66
2021/06/06 01:04:15;;;;;;;2.20;1.65;;;;;;;14.42;83.34;97886.11;1708756;84;21043;-65
2021/06/06 01:06:50;;;;;;;4.17;2.00;;;;;;;14.46;83.64;97910.92;1708711;84;21047;-66
2021/06/06 01:09:20;;;;;;;3.20;1.95;;;;;;;14.49;83.70;97927.56;1708645;83;21045;-66
2021/06/06 01:12:15;;;;;;;4.67;2.35;;;;;;;14.52;82.46;97921.99;1708830;84;21114;-65
2021/06/06 01:14:58;;;;;;;3.65;2.27;;;;;;;14.56;83.54;97901.07;1709835;84;21058;-65
2021/06/06 01:18:03;;;;;;;1.92;1.70;;;;;;;14.55;83.53;97902.05;1710182;83;21070;-65
2021/06/06 01:21:10;;;;;;;3.52;1.87;;;;;;;14.58;82.89;97895.20;1709764;84;21027;-66
2021/06/06 01:24:11;;;;;;;4.20;2.22;;;;;;;14.55;84.31;97886.37;1710261;83;21035;-68
2021/06/06 01:26:49;;;;;;;8.05;2.55;;;;;;;14.47;85.41;97899.98;1710205;83;21054;-66
2021/06/06 01:29:47;;;;;;;2.95;2.22;;;;;;;14.45;85.36;97913.69;1649057;86;21059;-65
2021/06/06 01:32:32;;;;;;;3.72;2.15;;;;;;;14.41;85.94;97893.62;1651150;86;20998;-65
2021/06/06 01:35:17;;;;;;;4.08;2.15;;;;;;;14.40;85.80;97880.22;1652384;86;21545;-65
2021/06/06 01:38:02;;;;;;;4.20;1.95;;;;;;;14.43;85.16;97872.07;1650911;86;21551;-65
2021/06/06 01:40:34;;;;;;;3.58;2.02;;;;;;;14.49;83.88;97874.48;1651267;86;21022;-65
2021/06/06 01:43:05;;;;;;;2.62;2.00;;;;;;;14.55;82.86;97888.20;1651440;86;21082;-65
2021/06/06 01:45:44;;;;;;;1.92;1.57;;;;;;;14.60;81.74;97889.30;1651772;86;21062;-65
2021/06/06 01:48:14;;;;;;;3.55;1.90;;;;;;;14.63;81.56;97878.50;1650617;86;21018;-65
2021/06/06 01:50:52;;;;;;;2.85;1.95;;;;;;;14.68;81.72;97877.99;1650715;86;21078;-65
2021/06/06 01:53:23;;;;;;;2.40;1.62;;;;;;;14.69;81.06;97867.38;1651004;86;21035;-65
2021/06/06 01:55:55;;;;;;;6.12;2.10;;;;;;;14.71;80.82;97873.23;1651478;86;21058;-66
2021/06/06 01:58:23;;;;;;;4.37;1.98;;;;;;;14.74;80.45;97876.02;1707226;84;21180;-65
2021/06/06 02:01:00;;;;;;;3.58;1.67;;;;;;;14.77;80.52;97873.55;1707363;84;21526;-65
2021/06/06 02:03:29;;;;;;;2.65;1.70;;;;;;;14.80;80.30;97869.28;1706780;83;21125;-66
2021/06/06 02:05:58;;;;;;;1.85;1.45;;;;;;;14.83;80.33;97867.63;1703125;84;21008;-65
2021/06/06 02:08:31;;;;;;;3.10;2.15;;;;;;;14.84;79.88;97865.34;1703204;84;21054;-66
2021/06/06 02:11:14;;;;;;;4.12;2.17;;;;;;;14.86;79.97;97869.92;1703448;84;21519;-65
2021/06/06 02:13:49;;;;;;;3.15;2.20;;;;;;;14.86;81.36;97863.38;1679203;85;21016;-66
2021/06/06 02:16:23;;;;;;;1.85;1.60;;;;;;;14.72;85.12;97866.22;1654118;85;21062;-65
2021/06/06 02:18:50;;;;;;;4.72;2.25;;;;;;;14.67;84.35;97866.72;1652831;85;21554;-65
2021/06/06 02:21:21;;;;;;;3.92;2.15;;;;;;;14.61;83.33;97862.67;1679375;85;21031;-65
2021/06/06 02:23:50;;;;;;;5.58;2.87;;;;;;;14.58;83.42;97859.92;1679258;85;21046;-65
2021/06/06 02:26:45;;;;;;;3.17;2.25;;;;;;;14.53;83.79;97864.02;1680498;85;21043;-65
2021/06/06 02:29:42;;;;;;;3.70;2.10;;;;;;;14.47;83.93;97862.09;1679013;85;21126;-65
2021/06/06 02:32:23;;;;;;;3.55;2.17;;;;;;;14.40;84.27;97858.02;1679082;85;21007;-65
2021/06/06 02:35:27;;;;;;;3.17;2.05;;;;;;;14.35;86.05;97852.99;1679067;85;21645;-64
2021/06/06 02:38:21;;;;;;;3.40;2.12;;;;;;;14.24;87.97;97851.02;1679242;85;21174;-64
2021/06/06 02:40:58;;;;;;;5.03;2.33;;;;;;;14.21;86.95;97850.55;1679113;85;21483;-65
2021/06/06 02:43:44;;;;;;;2.62;1.85;;;;;;;14.19;86.55;97851.22;1678476;85;21011;-65
2021/06/06 02:46:14;;;;;;;3.95;1.98;;;;;;;14.17;85.73;97850.06;1679070;85;21499;-65
2021/06/06 02:48:46;;;;;;;5.35;2.67;;;;;;;14.17;85.21;97853.16;1679179;85;21114;-64
2021/06/06 02:51:20;;;;;;;2.52;1.85;;;;;;;14.16;85.30;97850.25;1679169;85;21106;-65
2021/06/06 02:54:06;;;;;;;3.83;2.20;;;;;;;14.15;85.19;97852.05;1679251;85;21122;-65
2021/06/06 02:56:40;;;;;;;2.87;1.87;;;;;;;14.17;85.76;97851.37;1679220;85;21510;-64
2021/06/06 02:59:28;;;;;;;4.97;2.40;;;;;;;14.19;85.47;97854.64;1678996;85;21028;-65
2021/06/06 03:02:00;;;;;;;4.70;1.95;;;;;;;14.21;85.14;97854.45;1679514;85;21066;-66
2021/06/06 03:04:32;;;;;;;3.55;2.15;;;;;;;14.19;85.01;97855.95;1679119;85;21259;-65
2021/06/06 03:07:05;;;;;;;4.53;2.67;;;;;;;14.15;86.24;97853.35;1679488;85;21122;-65
2021/06/06 03:09:34;;;;;;;3.90;2.42;;;;;;;14.13;85.45;97846.16;1679254;85;21122;-65
2021/06/06 03:12:08;;;;;;;3.95;2.20;;;;;;;14.16;85.31;97852.34;1679532;85;21567;-64
2021/06/06 03:14:41;;;;;;;3.12;2.27;;;;;;;14.21;84.77;97853.16;1695525;84;21063;-68
2021/06/06 03:17:27;;;;;;;3.02;1.85;;;;;;;14.26;84.42;97851.68;1703203;84;21102;-64
2021/06/06 03:19:58;;;;;;;3.05;2.00;;;;;;;14.33;84.28;97850.51;1703142;83;21019;-64
2021/06/06 03:22:33;;;;;;;3.87;2.40;;;;;;;14.37;84.57;97848.40;1702981;84;21043;-65
2021/06/06 03:25:09;;;;;;;4.10;2.12;;;;;;;14.42;84.14;97853.45;1703261;83;21082;-66
2021/06/06 03:27:41;;;;;;;6.47;2.15;;;;;;;14.45;83.86;97853.11;1703185;84;21500;-65
2021/06/06 03:30:28;;;;;;;3.80;2.15;;;;;;;14.42;84.95;97853.45;1703041;84;21039;-65
2021/06/06 03:32:59;;;;;;;2.77;2.00;;;;;;;14.40;85.28;97855.41;1682640;84;21121;-65
2021/06/06 03:35:28;;;;;;;3.40;2.08;;;;;;;14.42;84.30;97864.39;1703123;84;21027;-64
2021/06/06 03:37:55;;;;;;;2.83;1.92;;;;;;;14.40;84.10;97859.33;1703077;84;21035;-65
2021/06/06 03:40:31;;;;;;;2.40;1.82;;;;;;;14.44;83.69;97855.88;1703154;84;21031;-65
2021/06/06 03:43:04;;;;;;;3.37;1.87;;;;;;;14.45;83.05;97859.64;1702040;84;21075;-65
2021/06/06 03:45:32;;;;;;;2.85;1.80;;;;;;;14.46;82.88;97856.05;1703137;84;21005;-65
2021/06/06 03:48:01;;;;;;;3.05;2.00;;;;;;;14.48;82.47;97861.91;1703012;84;21563;-64
2021/06/06 03:50:31;;;;;;;4.12;2.00;;;;;;;14.49;82.46;97861.42;1703211;84;21071;-64
2021/06/06 03:52:59;;;;;;;3.47;2.15;;;;;;;14.50;82.08;97859.14;1703190;84;21110;-65
2021/06/06 03:55:27;;;;;;;2.65;1.85;;;;;;;14.50;82.03;97857.34;1703061;84;21019;-64
2021/06/06 03:57:56;;;;;;;4.00;2.05;;;;;;;14.51;81.95;97857.64;1703043;84;21082;-64
2021/06/06 04:00:35;;;;;;;2.37;1.55;;;;;;;14.50;81.65;97859.95;1703136;84;21488;-65
2021/06/06 04:03:03;;;;;;;4.85;2.22;;;;;;;14.49;82.20;97859.63;1702944;84;21038;-67
2021/06/06 04:05:32;;;;;;;3.75;2.22;;;;;;;14.45;83.25;97864.05;1703117;84;21531;-66
2021/06/06 04:08:02;;;;;;;3.00;2.08;;;;;;;14.40;84.12;97865.86;1703051;84;21507;-65
2021/06/06 04:10:31;;;;;;;5.85;2.25;;;;;;;14.42;83.22;97871.74;1703257;84;20999;-64
2021/06/06 04:13:00;;;;;;;4.42;2.37;;;;;;;14.42;84.97;97869.62;1703077;84;21034;-66
2021/06/06 04:15:27;;;;;;;5.15;1.92;;;;;;;14.37;86.64;97868.81;1708606;84;21026;-65
2021/06/06 04:17:55;;;;;;;4.35;2.40;;;;;;;14.37;86.88;97874.52;1649604;87;21102;-65
2021/06/06 04:20:24;;;;;;;3.33;2.20;;;;;;;14.38;86.57;97870.45;1709046;84;21534;-67
2021/06/06 04:22:51;;;;;;;3.35;2.27;;;;;;;14.42;85.07;97868.31;1649799;87;21090;-66
2021/06/06 04:25:19;;;;;;;4.95;2.35;;;;;;;14.47;86.98;97872.06;1649567;87;21003;-67
2021/06/06 04:27:46;;;;;;;3.35;2.20;;;;;;;14.51;86.32;97873.31;1629152;87;21511;-67
2021/06/06 04:30:15;;;;;;;3.42;2.27;;;;;;;14.54;86.69;97870.88;1708823;83;21133;-67
2021/06/06 04:32:42;;;;;;;4.05;2.22;;;;;;;14.59;85.84;97873.81;1708957;84;21073;-66
2021/06/06 04:35:10;;;;;;;4.50;2.77;;;;;;;14.65;86.36;97879.16;1649723;87;21158;-66
2021/06/06 04:37:38;;;;;;;4.87;2.72;;;;;;;14.78;87.35;97877.31;1649984;86;21055;-65
2021/06/06 04:40:09;;;;;;;7.72;4.90;;;;;;;14.86;87.18;97883.81;1649555;87;21487;-66
2021/06/06 04:42:39;;;;;;;6.78;5.03;;;;;;;14.97;86.33;97880.80;1649674;87;21621;-66
2021/06/06 04:45:10;;;;;;;7.37;4.87;;;;;;;15.02;85.44;97882.87;1708982;83;21042;-65
2021/06/06 04:47:37;;;;;;;8.78;4.70;;;;;;;15.16;85.04;97881.67;1709101;84;21503;-64
2021/06/06 04:50:09;;;;;;;5.25;3.45;;;;;;;15.18;86.57;97882.78;1709493;84;21043;-64
2021/06/06 04:52:36;;;;;;;5.12;3.75;;;;;;;15.30;86.26;97881.39;1709297;84;21019;-64
2021/06/06 04:55:16;;;;;;;6.05;3.08;;;;;;;15.32;85.60;97883.85;1709135;84;21038;-64
2021/06/06 04:57:44;;;;;;;5.15;3.77;;;;;;;15.31;85.49;97883.03;1709207;84;21046;-65
2021/06/06 05:00:19;;;;;;;6.30;3.65;;;;;;;15.27;84.72;97883.55;1650198;87;21166;-65
2021/06/06 05:02:47;;;;;;;4.10;2.70;;;;;;;15.30;84.69;97888.42;1650154;87;21062;-66
2021/06/06 05:05:16;;;;;;;4.22;2.87;;;;;;;15.32;83.96;97883.85;1649991;87;21498;-66
2021/06/06 05:07:52;;;;;;;5.67;2.55;;;;;;;15.30;84.82;97884.02;1708628;83;21031;-65
2021/06/06 05:10:22;;;;;;;6.25;2.58;;;;;;;15.28;84.75;97891.73;1649890;87;20999;-66
2021/06/06 05:12:50;;;;;;;4.37;2.40;;;;;;;15.41;84.10;97886.22;1650072;86;21075;-67
2021/06/06 05:15:19;;;;;;;4.45;2.75;;;;;;;15.44;83.10;97885.89;1708880;84;21117;-66
2021/06/06 05:17:47;;;;;;;3.60;2.30;;;;;;;15.47;82.86;97882.10;1686638;84;21456;-65
2021/06/06 05:20:18;;;;;;;3.95;2.75;;;;;;;15.48;82.80;97888.97;1649965;86;21066;-67
2021/06/06 05:22:46;;;;;;;2.75;2.27;;;;;;;15.48;83.04;97891.59;1686839;84;21082;-66
2021/06/06 05:25:15;;;;;;;5.20;2.33;;;;;;;15.49;83.30;97894.05;1709502;83;21456;-66
2021/06/06 05:27:42;;;;;;;3.25;2.17;;;;;;;15.53;83.25;97894.50;1708005;84;21019;-66
2021/06/06 05:30:14;;;;;;;2.98;2.02;;;;;;;15.51;82.83;97889.47;1709184;83;21011;-66
2021/06/06 05:32:41;;;;;;;3.58;2.20;;;;;;;15.57;82.65;97893.98;1650218;86;21502;-66
2021/06/06 05:35:10;;;;;;;3.67;2.35;;;;;;;15.50;82.60;97895.68;1681494;85;21102;-67
2021/06/06 05:37:36;;;;;;;4.03;2.72;;;;;;;15.45;82.56;97896.66;1681042;84;21110;-66
2021/06/06 05:40:05;;;;;;;3.40;2.10;;;;;;;15.52;82.34;97895.52;1681534;85;21118;-66
2021/06/06 05:42:32;;;;;;;3.67;2.27;;;;;;;15.52;81.29;97898.13;1681054;85;21042;-66
2021/06/06 05:44:59;;;;;;;3.67;2.12;;;;;;;15.40;80.84;97904.73;1680843;85;21138;-67
2021/06/06 05:47:26;;;;;;;2.00;1.67;;;;;;;15.50;81.53;97906.14;1681063;85;21082;-68
2021/06/06 05:49:53;;;;;;;4.70;1.55;;;;;;;15.42;80.74;97910.59;1680812;85;21047;-66
2021/06/06 05:52:22;;;;;;;3.20;2.30;;;;;;;15.37;80.89;97909.80;1690263;84;21570;-67
2021/06/06 05:54:49;;;;;;;4.72;2.40;;;;;;;15.33;80.90;97916.36;1688139;84;21563;-67
2021/06/06 05:57:16;;;;;;;3.05;2.12;;;;;;;15.40;81.17;97920.43;1633710;86;21054;-66
2021/06/06 05:59:43;;;;;;;4.25;2.75;;;;;;;15.48;80.45;97919.89;1695081;84;21114;-65
2021/06/06 06:02:12;;;;;;;3.45;2.50;;;;;;;15.38;80.35;97925.01;1689707;84;21051;-65
2021/06/06 06:04:39;;;;;;;2.52;1.85;;;;;;;15.50;80.85;97922.34;1691294;84;21087;-65
2021/06/06 06:07:09;;;;;;;2.90;1.90;;;;;;;15.61;80.01;97921.92;1680006;85;21350;-65
2021/06/06 06:09:36;;;;;;;2.85;1.82;;;;;;;15.49;80.42;97922.83;1680040;85;21085;-64
2021/06/06 06:12:06;;;;;;;1.45;1.25;;;;;;;15.73;80.05;97915.78;1680117;85;21082;-64
2021/06/06 06:14:33;;;;;;;4.20;2.40;;;;;;;15.86;78.44;97917.32;1680063;85;21125;-65
2021/06/06 06:17:00;;;;;;;2.70;2.08;;;;;;;15.79;78.79;97918.53;1679290;85;21093;-65
2021/06/06 06:19:28;;;;;;;4.65;3.05;;;;;;;15.82;78.72;97912.12;1679597;85;21059;-65
2021/06/06 06:21:55;;;;;;;5.87;3.22;;;;;;;15.88;77.83;97914.02;1679789;84;21097;-65
2021/06/06 06:24:21;;;;;;;3.70;2.50;;;;;;;16.01;77.50;97916.36;1680158;84;21054;-65
2021/06/06 06:26:48;;;;;;;4.72;3.20;;;;;;;16.24;76.59;97908.44;1680601;85;21125;-65
2021/06/06 06:29:20;;;;;;;4.75;2.95;;;;;;;15.98;76.65;97909.36;1679702;85;21094;-68
2021/06/06 06:32:07;;;;;;;7.03;2.70;;;;;;;15.91;77.60;97912.37;1678286;85;21065;-65
2021/06/06 06:34:36;;;;;;;7.22;3.27;;;;;;;16.31;76.44;97915.89;1679996;85;21079;-64
2021/06/06 06:37:03;;;;;;;4.42;2.65;;;;;;;16.35;76.27;97913.23;1680642;85;21037;-65
2021/06/06 06:39:31;;;;;;;3.67;2.85;;;;;;;16.48;75.10;97908.69;1680243;85;21097;-65
2021/06/06 06:41:58;;;;;;;5.00;2.85;;;;;;;16.57;74.92;97908.42;1680468;84;21078;-65
2021/06/06 06:44:25;;;;;;;4.50;2.90;;;;;;;16.67;74.83;97909.47;1679985;84;21046;-64
2021/06/06 06:46:53;;;;;;;3.62;2.62;;;;;;;16.53;73.98;97909.78;1679668;84;21047;-65
2021/06/06 06:49:22;;;;;;;4.15;3.00;;;;;;;16.35;74.46;97907.99;1680099;85;21051;-64
2021/06/06 06:51:49;;;;;;;3.80;3.00;;;;;;;16.35;76.19;97896.20;1680385;85;21035;-64
2021/06/06 06:54:16;;;;;;;4.03;2.87;;;;;;;16.64;75.06;97901.16;1680033;85;21133;-65
2021/06/06 06:56:42;;;;;;;4.85;2.90;;;;;;;16.75;74.49;97899.38;1679853;85;21575;-64
2021/06/06 06:59:09;;;;;;;5.45;3.10;;;;;;;16.90;73.34;97893.12;1680423;85;21119;-64
2021/06/06 07:01:36;;;;;;;3.37;2.27;;;;;;;16.69;73.77;97898.81;1680127;84;21550;-65
2021/06/06 07:04:03;;;;;;;4.90;3.33;;;;;;;16.66;73.28;97893.41;1680144;85;21062;-64
2021/06/06 07:06:31;;;;;;;4.58;2.77;;;;;;;16.69;73.22;97890.95;1683468;84;21121;-65
2021/06/06 07:08:57;;;;;;;4.42;2.80;;;;;;;16.70;74.11;97886.00;1689849;84;21088;-66
2021/06/06 07:11:26;;;;;;;5.80;2.95;;;;;;;16.64;73.87;97881.50;1692717;84;21022;-64
2021/06/06 07:13:54;;;;;;;6.37;2.62;;;;;;;16.50;74.37;97881.28;1689141;84;21491;-64
2021/06/06 07:16:21;;;;;;;4.03;2.90;;;;;;;16.71;74.61;97884.52;1687527;84;21126;-68
2021/06/06 07:18:50;;;;;;;4.40;2.47;;;;;;;16.91;73.13;97883.44;1693856;83;21078;-64
2021/06/06 07:21:22;;;;;;;4.28;3.25;;;;;;;17.14;71.90;97881.97;1690673;84;21492;-64
2021/06/06 07:23:51;;;;;;;3.95;2.72;;;;;;;16.93;72.65;97882.25;1698449;84;21054;-64
2021/06/06 07:26:26;;;;;;;4.37;3.22;;;;;;;17.14;72.65;97884.59;1692222;83;21470;-64
2021/06/06 07:29:00;;;;;;;3.43;2.43;;;;;;;17.17;71.63;97878.97;1688475;84;21114;-64
2021/06/06 07:31:29;;;;;;;3.42;2.92;;;;;;;17.32;70.67;97882.35;1691266;83;21038;-63
2021/06/06 07:33:55;;;;;;;3.87;2.52;;;;;;;17.33;70.99;97882.18;1694277;84;21116;-64
2021/06/06 07:36:23;;;;;;;5.72;2.67;;;;;;;17.30;71.55;97879.94;1691735;84;21035;-65
2021/06/06 07:38:51;;;;;;;4.70;3.08;;;;;;;17.66;70.71;97873.83;1682614;84;21079;-65
2021/06/06 07:41:21;;;;;;;7.97;3.42;;;;;;;17.91;70.03;97880.28;1683825;85;21150;-65
2021/06/06 07:43:48;;;;;;;4.75;2.90;;;;;;;18.13;68.65;97881.06;1686761;85;21015;-65
2021/06/06 07:46:15;;;;;;;4.50;2.85;;;;;;;18.22;67.98;97872.00;1686306;85;21097;-64
2021/06/06 07:48:43;;;;;;;3.87;3.10;;;;;;;18.38;68.11;97871.20;1687209;85;21086;-64
2021/06/06 07:51:11;;;;;;;3.62;2.60;;;;;;;18.40;66.83;97871.02;1686713;85;21519;-63
2021/06/06 07:53:38;;;;;;;3.98;2.67;;;;;;;18.43;67.51;97867.50;1687396;85;21019;-62
2021/06/06 07:56:06;;;;;;;4.05;2.65;;;;;;;18.61;66.85;97870.94;1686669;85;21035;-64
2021/06/06 07:58:37;;;;;;;4.05;2.70;;;;;;;18.59;65.64;97874.28;1686564;85;21142;-63
2021/06/06 08:01:07;;;;;;;4.05;2.55;;;;;;;18.61;66.72;97875.38;1696587;84;21051;-63
2021/06/06 08:03:34;;;;;;;3.62;2.77;;;;;;;18.77;66.07;97878.50;1695542;84;21004;-63
2021/06/06 08:06:04;;;;;;;4.83;2.10;;;;;;;18.75;66.12;97879.71;1695058;84;21169;-64
2021/06/06 08:08:32;;;;;;;5.20;2.37;;;;;;;18.86;65.66;97876.52;1695821;84;21078;-63
2021/06/06 08:11:01;;;;;;;3.55;2.70;;;;;;;19.03;65.44;97876.45;1694845;84;21074;-64
2021/06/06 08:13:28;;;;;;;4.62;2.35;;;;;;;19.22;65.40;97880.17;1696598;83;21030;-64
2021/06/06 08:15:56;;;;;;;3.35;2.25;;;;;;;19.40;64.45;97881.72;1689737;84;21043;-63
2021/06/06 08:18:28;;;;;;;4.37;2.58;;;;;;;19.48;63.88;97880.75;1687053;85;21030;-63
2021/06/06 08:21:00;;;;;;;2.50;1.70;;;;;;;19.39;63.41;97875.64;1687525;85;21046;-63
2021/06/06 08:23:28;;;;;;;3.05;2.37;;;;;;;19.69;62.87;97882.67;1687160;85;21050;-63
2021/06/06 08:25:57;;;;;;;3.27;2.50;;;;;;;19.71;63.24;97885.13;1686255;85;21102;-63
2021/06/06 08:28:25;;;;;;;4.47;2.80;;;;;;;19.76;63.39;97882.20;1686205;85;21078;-63
2021/06/06 08:30:57;;;;;;;4.72;2.37;;;;;;;19.40;63.93;97882.53;1687136;85;21075;-65
2021/06/06 08:33:29;;;;;;;3.22;2.10;;;;;;;19.84;63.63;97880.65;1686406;84;21224;-64
2021/06/06 08:36:04;;;;;;;2.75;1.98;;;;;;;20.04;62.84;97879.86;1686184;84;21141;-63
2021/06/06 08:38:32;;;;;;;6.75;2.87;;;;;;;20.19;61.28;97875.95;1686635;84;21598;-64
2021/06/06 08:41:16;;;;;;;3.08;2.08;;;;;;;20.22;61.71;97878.70;1686165;85;21043;-63
2021/06/06 08:43:54;;;;;;;3.35;2.10;;;;;;;20.53;60.33;97878.05;1686721;85;20991;-63
2021/06/06 08:46:24;;;;;;;4.92;2.17;;;;;;;20.78;58.68;97875.01;1687159;85;21086;-63
2021/06/06 08:48:52;;;;;;;2.92;2.12;;;;;;;20.78;59.84;97878.97;1686135;85;21055;-65
2021/06/06 08:51:35;;;;;;;3.90;2.42;;;;;;;20.88;59.71;97874.07;1687724;84;21483;-64
2021/06/06 08:54:43;;;;;;;2.62;2.17;;;;;;;20.70;58.97;97873.95;1686706;85;21019;-65
2021/06/06 08:57:17;;;;;;;2.30;1.98;;;;;;;20.34;60.71;97870.00;1723600;83;21051;-64
2021/06/06 08:59:55;;;;;;;3.47;2.30;;;;;;;20.58;59.12;97875.61;1723872;83;21100;-64
2021/06/06 09:02:36;;;;;;;5.33;3.00;;;;;;;20.89;59.74;97875.70;1723554;83;21769;-64
2021/06/06 09:05:09;;;;;;;3.25;2.25;;;;;;;20.96;58.72;97867.23;1722398;83;21094;-64
2021/06/06 09:07:43;;;;;;;3.12;2.30;;;;;;;20.93;59.22;97866.34;1723535;83;21059;-63
2021/06/06 09:10:15;;;;;;;4.25;2.65;;;;;;;21.22;57.79;97863.16;1722567;83;21464;-64
2021/06/06 09:12:43;;;;;;;3.58;2.08;;;;;;;21.51;57.19;97862.27;1723460;83;21070;-65
2021/06/06 09:15:15;;;;;;;4.10;2.45;;;;;;;21.68;55.22;97868.11;1723560;83;21154;-63
2021/06/06 09:17:47;;;;;;;6.78;2.30;;;;;;;21.34;56.60;97867.75;1723386;83;21112;-64
2021/06/06 09:20:40;;;;;;;2.80;1.87;;;;;;;20.94;58.04;97861.34;1723509;83;21032;-64
2021/06/06 09:23:24;;;;;;;3.10;2.08;;;;;;;21.39;57.81;97861.33;1723405;83;21063;-63
2021/06/06 09:26:21;;;;;;;2.60;1.95;;;;;;;21.63;56.57;97859.23;1723368;83;21425;-66
2021/06/06 09:29:05;;;;;;;4.08;2.70;;;;;;;21.97;55.75;97854.80;1723295;83;21088;-64
2021/06/06 09:31:35;;;;;;;2.33;1.60;;;;;;;22.09;53.63;97857.02;1723560;83;21562;-64
2021/06/06 09:34:07;;;;;;;2.80;1.90;;;;;;;22.18;53.61;97855.70;1723082;83;21082;-65
2021/06/06 09:36:41;;;;;;;4.92;2.08;;;;;;;22.47;52.99;97859.98;1723262;83;21032;-64
2021/06/06 09:39:21;;;;;;;3.08;2.22;;;;;;;22.60;52.19;97857.20;1723465;83;20988;-64
2021/06/06 09:41:56;;;;;;;2.17;1.65;;;;;;;22.56;52.32;97852.87;1723528;83;21027;-65
2021/06/06 09:44:33;;;;;;;2.47;1.67;;;;;;;23.10;50.91;97847.22;1723361;83;21028;-64
2021/06/06 09:47:14;;;;;;;2.75;1.90;;;;;;;23.46;49.54;97850.30;1723779;83;21007;-63
2021/06/06 09:49:46;;;;;;;2.15;1.87;;;;;;;23.42;48.69;97848.59;1723747;83;21475;-65
2021/06/06 09:52:29;;;;;;;3.55;2.20;;;;;;;23.65;48.38;97857.14;1723654;83;21114;-66
2021/06/06 09:55:00;;;;;;;4.10;1.92;;;;;;;23.40;48.29;97849.84;1723728;82;21544;-64
2021/06/06 09:57:39;;;;;;;4.10;1.98;;;;;;;23.76;48.53;97853.69;1720956;83;21093;-65
2021/06/06 10:00:17;;;;;;;2.10;1.60;;;;;;;24.21;47.06;97847.83;1720412;83;21045;-65
2021/06/06 10:02:57;;;;;;;1.90;1.77;;;;;;;24.11;45.90;97847.07;1688098;84;21085;-65
2021/06/06 10:05:39;;;;;;;6.20;3.92;;;;;;;24.31;45.23;97842.77;1687808;85;21011;-65
2021/06/06 10:08:23;;;;;;;4.90;2.85;;;;;;;24.60;46.28;97835.13;1688022;85;21274;-65
2021/06/06 10:10:55;;;;;;;1.90;1.30;;;;;;;24.75;43.24;97844.73;1685397;84;21125;-65
2021/06/06 10:13:32;;;;;;;1.10;1.00;;;;;;;25.28;41.63;97841.78;1716576;82;21046;-65
2021/06/06 10:16:07;;;;;;;1.70;1.30;;;;;;;25.92;42.23;97838.31;1721115;82;21109;-65
2021/06/06 10:18:42;;;;;;;1.90;1.10;;;;;;;25.58;39.66;97838.05;1684988;83;21023;-65
2021/06/06 10:21:22;;;;;;;1.55;1.30;;;;;;;26.38;38.31;97838.49;1717081;82;21085;-65
2021/06/06 10:24:00;;;;;;;3.52;1.10;;;;;;;26.23;40.38;97832.94;1717264;83;21031;-65
2021/06/06 10:26:53;;;;;;;1.60;1.20;;;;;;;26.55;40.98;97834.42;1671400;85;21050;-63
2021/06/06 10:29:37;;;;;;;2.12;1.27;;;;;;;27.32;38.39;97835.83;1717253;83;21559;-65
2021/06/06 10:32:15;;;;;;;1.27;0.95;;;;;;;27.54;36.83;97834.47;1717017;83;21507;-64
2021/06/06 10:34:59;;;;;;;1.40;1.20;;;;;;;27.59;37.51;97825.16;1708670;83;21081;-63
2021/06/06 10:37:26;;;;;;;1.12;1.00;;;;;;;27.58;36.80;97822.23;1712642;82;21061;-63
2021/06/06 10:39:59;;;;;;;1.50;1.10;;;;;;;27.34;34.66;97823.06;1717678;83;21166;-63
2021/06/06 10:42:37;;;;;;;2.22;1.30;;;;;;;26.99;35.04;97822.72;1717113;83;21038;-62
2021/06/06 10:45:19;;;;;;;1.37;1.05;;;;;;;26.94;35.29;97819.99;1716298;82;21515;-63
2021/06/06 10:47:57;;;;;;;1.57;0.78;;;;;;;28.10;36.86;97813.00;1709862;82;21042;-63
2021/06/06 10:50:32;;;;;;;2.27;1.10;;;;;;;28.16;33.19;97813.85;1658604;85;21574;-63
2021/06/06 10:53:16;;;;;;;1.10;0.80;;;;;;;28.17;32.71;97814.13;1686988;84;21066;-63
2021/06/06 10:56:07;;;;;;;1.10;0.85;;;;;;;28.61;33.07;97804.70;1668826;85;21192;-61
2021/06/06 10:58:51;;;;;;;1.37;0.90;;;;;;;29.04;31.65;97810.20;1694170;83;21554;-64
2021/06/06 11:01:29;;;;;;;0.88;0.80;;;;;;;29.59;33.13;97808.14;1717193;83;21081;-63
2021/06/06 11:04:11;;;;;;;1.15;0.95;;;;;;;29.83;30.38;97809.73;1717943;83;21526;-63
2021/06/06 11:06:39;;;;;;;1.40;1.00;;;;;;;29.52;30.54;97808.14;1717461;82;21077;-63
2021/06/06 11:09:20;;;;;;;1.62;1.22;;;;;;;29.28;30.23;97807.86;1696278;82;21034;-63
2021/06/06 11:11:58;;;;;;;1.05;0.90;;;;;;;28.82;31.00;97804.27;1719760;82;21092;-63
2021/06/06 11:14:37;;;;;;;1.95;1.25;;;;;;;28.92;30.17;97800.28;1718855;83;21570;-62
2021/06/06 11:17:12;;;;;;;2.08;1.07;;;;;;;29.07;29.45;97804.31;1718402;82;21519;-63
2021/06/06 11:19:39;;;;;;;0.93;0.88;;;;;;;29.90;28.11;97801.44;1718182;82;21534;-65
2021/06/06 11:22:17;;;;;;;1.10;1.00;;;;;;;30.02;28.39;97790.72;1708919;81;21546;-65
2021/06/06 11:24:48;;;;;;;1.07;0.80;;;;;;;30.86;28.07;97797.09;1716658;81;21137;-65
2021/06/06 11:27:33;;;;;;;2.02;1.80;;;;;;;31.56;29.57;97787.02;1715202;81;21476;-66
2021/06/06 11:30:05;;;;;;;2.08;0.90;;;;;;;31.77;26.26;97789.23;1709190;82;21124;-63
2021/06/06 11:33:01;;;;;;;1.02;0.93;;;;;;;31.62;26.08;97784.00;1719162;81;21062;-63
2021/06/06 11:35:40;;;;;;;1.05;0.85;;;;;;;32.39;28.08;97780.25;1687298;83;21571;-64
2021/06/06 11:38:41;;;;;;;1.12;0.90;;;;;;;32.48;22.42;97775.05;1700244;83;21082;-64
2021/06/06 11:41:24;;;;;;;3.37;2.92;;;;;;;31.83;23.30;97769.83;1722439;82;21189;-66
2021/06/06 11:44:14;;;;;;;37.00;22.58;;;;;;;32.56;23.54;97757.48;1715529;82;21634;-65
2021/06/06 11:47:28;;;;;;;9.75;7.08;;;;;;;33.07;22.77;97754.89;1685592;84;21580;-65
2021/06/06 11:50:16;;;;;;;1.37;1.12;;;;;;;33.28;21.68;97761.58;1715852;82;21439;-65
2021/06/06 11:53:13;;;;;;;12.25;8.40;;;;;;;33.49;24.67;97759.36;1713969;82;21095;-65
2021/06/06 11:55:45;;;;;;;4.67;4.03;;;;;;;33.53;20.22;97752.28;1716135;82;21053;-67
2021/06/06 11:58:25;;;;;;;3.15;1.70;;;;;;;33.61;20.96;97745.68;1720262;81;21141;-63
2021/06/06 12:01:04;;;;;;;2.00;1.47;;;;;;;33.73;22.69;97753.31;1684414;84;21038;-62
2021/06/06 12:03:36;;;;;;;1.42;1.20;;;;;;;33.81;21.39;97748.59;1687677;85;21087;-64
2021/06/06 12:06:08;;;;;;;1.00;0.72;;;;;;;33.75;20.17;97741.67;1717309;83;21519;-69